Clear but hazy
Clear but hazy
Clear with few low clouds
Partly cloudy
Partly cloudy
Mostly cloudy
Mostly cloudy
(°F)
61°
61°
60°
59°
59°
58°
58°
(°F)
56°
58°
59°
58°
58°
58°
58°
NE
NE
NE
NE
NE
ENE
ENE
(mph)
13-15
8-16
7-14
6-15
5-11
5-11
5-10
(in)
0
0
0
0
0
0
0
(%)
0
0
0
0
0
0
0

Sun elevation

/ -77°
sun-icon
UV 5
07:06
18:12
Waxing crescent moon (76°)
11:07
23:57

METAR for Indore (VAID)

Time Conditions Temperature/
Dewpoint
Wind Visibility Weather Clouds Pressure Change Raw
LIFR 60.8°F / 55.4°F 70º 7kt 1500m Mist Vertical Visibility of 0ft. 1018 No Significant change VAID 271800Z 07007KT 1500 BR NSC 16/13 Q1018 NOSIG
LIFR 60.8°F / 57.2°F 70º 11kt 1600m Mist Vertical Visibility of 0ft. 1018 No Significant change VAID 271730Z 07011KT 1600 BR NSC 16/14 Q1018 NOSIG
LIFR 60.8°F / 57.2°F 70º 8kt 1600m Mist Vertical Visibility of 0ft. 1018 No Significant change VAID 271630Z 07008KT 1600 BR NSC 16/14 Q1018 NOSIG
LIFR 62.6°F / 57.2°F 70º 8kt 1600m Mist Vertical Visibility of 0ft. 1019 No Significant change VAID 271600Z 07008KT 1600 BR NSC 17/14 Q1019 NOSIG
LIFR 62.6°F / 57.2°F 70º 10kt 1600m Mist Vertical Visibility of 0ft. 1018 No Significant change VAID 271500Z 07010KT 1600 BR NSC 17/14 Q1018 NOSIG
LIFR 62.6°F / 57.2°F 50º 6kt 1600m Mist Vertical Visibility of 0ft. 1018 No Significant change VAID 271430Z 05006KT 1600 BR NSC 17/14 Q1018 NOSIG
IFR 64.4°F / 57.2°F 60º 9kt 2000m Haze Vertical Visibility of 0ft.
Scattered Clouds 10000ft
1018 No Significant change VAID 271400Z 06009KT 2000 HZ SCT020 SCT100 18/14 Q1018 NOSIG
IFR 64.4°F / 57.2°F 30º 8kt 2000m Haze Vertical Visibility of 0ft.
Scattered Clouds 10000ft
1018 No Significant change VAID 271330Z 03008KT 2000 HZ SCT020 SCT100 18/14 Q1018 NOSIG
IFR 64.4°F / 57.2°F 60º 9kt 2000m Haze Vertical Visibility of 0ft.
Scattered Clouds 10000ft
1017 No Significant change VAID 271300Z 06009KT 2000 HZ SCT020 SCT100 18/14 Q1017 NOSIG
IFR 66.2°F / 59°F 40º 9kt 2000m Haze Vertical Visibility of 0ft.
Scattered Clouds 10000ft
1017 No Significant change VAID 271230Z 04009KT 2000 HZ SCT020 SCT100 19/15 Q1017 NOSIG
IFR 66.2°F / 59°F 40º 9kt 2000m Haze Vertical Visibility of 0ft.
Scattered Clouds 10000ft
1016 No Significant change VAID 271200Z 04009KT 2000 HZ SCT020 SCT100 19/15 Q1016 NOSIG
IFR 68°F / 59°F 40º 9kt 2000m Haze Vertical Visibility of 0ft.
Scattered Clouds 10000ft
1016 No Significant change VAID 271130Z 04009KT 2000 HZ SCT020 SCT100 20/15 Q1016 NOSIG
IFR 68°F / 59°F 50º 10kt 2000m Haze Vertical Visibility of 0ft.
Scattered Clouds 10000ft
1016 No Significant change VAID 271100Z 05010KT 2000 HZ SCT020 SCT100 20/15 Q1016 NOSIG
IFR 69.8°F / 59°F 40º 8kt 1800m. Runway 07: Visual range is 1900m. Haze Vertical Visibility of 0ft.
Scattered Clouds 10000ft
1016 No Significant change VAID 271030Z 04008KT 1800 R07/1900 HZ SCT020 SCT100 21/15 Q1016 NOSIG
IFR 69.8°F / 59°F 50º 6kt 2500m Haze Vertical Visibility of 0ft.
Scattered Clouds 10000ft
1016 No Significant change VAID 271000Z 05006KT 2500 HZ SCT020 SCT100 21/15 Q1016 NOSIG
IFR 71.6°F / 60.8°F 50º 6kt 2500m Haze Vertical Visibility of 0ft.
Scattered Clouds 10000ft
1016 Temporary: Visibility 3000. Haze . VAID 270857Z 05006KT 2500 HZ SCT020 SCT100 22/16 Q1016 TEMPO 3000 HZ
IFR 71.6°F / 60.8°F 50º 6kt 2000m Haze Vertical Visibility of 0ft.
Scattered Clouds 10000ft
1017 Temporary: Visibility 3000. Haze . VAID 270830Z 05006KT 2000 HZ SCT020 SCT100 22/16 Q1017 TEMPO 3000 HZ
IFR 68°F / 59°F 50º 8kt 2000m Haze Vertical Visibility of 0ft.
Scattered Clouds 10000ft
1018 No Significant change VAID 270800Z 05008KT 2000 HZ SCT020 SCT100 20/15 Q1018 NOSIG
IFR 68°F / 59°F 20º 8kt 2000m Haze Vertical Visibility of 0ft.
Scattered Clouds 10000ft
1018 No Significant change VAID 270730Z 02008KT 2000 HZ SCT020 SCT100 20/15 Q1018 NOSIG
IFR 68°F / 60.8°F 60º 6kt 2000m Haze Vertical Visibility of 0ft.
Scattered Clouds 10000ft
1018 No Significant change VAID 270700Z 06006KT 2000 HZ SCT020 SCT100 20/16 Q1018 NOSIG
IFR 68°F / 60.8°F 70º 8kt 2000m Haze Vertical Visibility of 0ft.
Scattered Clouds 10000ft
1019 No Significant change VAID 270630Z 07008KT 2000 HZ SCT020 SCT100 20/16 Q1019 NOSIG
IFR 68°F / 60.8°F 50º 8kt 2000m Haze Vertical Visibility of 0ft.
Scattered Clouds 10000ft
1019 No Significant change VAID 270600Z 05008KT 2000 HZ SCT020 SCT100 20/16 Q1019 NOSIG
IFR 66.2°F / 60.8°F 60º 7kt 2000m Haze Vertical Visibility of 0ft.
Scattered Clouds 10000ft
1020 Becoming: 3000M Haze . VAID 270530Z 06007KT 2000 HZ SCT020 SCT100 19/16 Q1020 BECMG 3000M HZ
IFR 64.4°F / 60.8°F 70º 9kt 2000m Mist Vertical Visibility of 0ft.
Broken Clouds 10000ft
1020 No Significant change VAID 270500Z 07009KT 2000 BR SCT018 BKN100 18/16 Q1020 NOSIG

LIFR

60.8°F / 55.4°F

[More]
Wind 70º 7kt
Visibility 1500m
Weather Mist
Clouds Vertical Visibility of 0ft.
Pressure 1018
Change No Significant change
Raw VAID 271800Z 07007KT 1500 BR NSC 16/13 Q1018 NOSIG

LIFR

60.8°F / 57.2°F

[More]
Wind 70º 11kt
Visibility 1600m
Weather Mist
Clouds Vertical Visibility of 0ft.
Pressure 1018
Change No Significant change
Raw VAID 271730Z 07011KT 1600 BR NSC 16/14 Q1018 NOSIG

LIFR

60.8°F / 57.2°F

[More]
Wind 70º 8kt
Visibility 1600m
Weather Mist
Clouds Vertical Visibility of 0ft.
Pressure 1018
Change No Significant change
Raw VAID 271630Z 07008KT 1600 BR NSC 16/14 Q1018 NOSIG

LIFR

62.6°F / 57.2°F

[More]
Wind 70º 8kt
Visibility 1600m
Weather Mist
Clouds Vertical Visibility of 0ft.
Pressure 1019
Change No Significant change
Raw VAID 271600Z 07008KT 1600 BR NSC 17/14 Q1019 NOSIG

LIFR

62.6°F / 57.2°F

[More]
Wind 70º 10kt
Visibility 1600m
Weather Mist
Clouds Vertical Visibility of 0ft.
Pressure 1018
Change No Significant change
Raw VAID 271500Z 07010KT 1600 BR NSC 17/14 Q1018 NOSIG

LIFR

62.6°F / 57.2°F

[More]
Wind 50º 6kt
Visibility 1600m
Weather Mist
Clouds Vertical Visibility of 0ft.
Pressure 1018
Change No Significant change
Raw VAID 271430Z 05006KT 1600 BR NSC 17/14 Q1018 NOSIG

IFR

64.4°F / 57.2°F

[More]
Wind 60º 9kt
Visibility 2000m
Weather Haze
Clouds Vertical Visibility of 0ft.
Scattered Clouds 10000ft
Pressure 1018
Change No Significant change
Raw VAID 271400Z 06009KT 2000 HZ SCT020 SCT100 18/14 Q1018 NOSIG

IFR

64.4°F / 57.2°F

[More]
Wind 30º 8kt
Visibility 2000m
Weather Haze
Clouds Vertical Visibility of 0ft.
Scattered Clouds 10000ft
Pressure 1018
Change No Significant change
Raw VAID 271330Z 03008KT 2000 HZ SCT020 SCT100 18/14 Q1018 NOSIG

IFR

64.4°F / 57.2°F

[More]
Wind 60º 9kt
Visibility 2000m
Weather Haze
Clouds Vertical Visibility of 0ft.
Scattered Clouds 10000ft
Pressure 1017
Change No Significant change
Raw VAID 271300Z 06009KT 2000 HZ SCT020 SCT100 18/14 Q1017 NOSIG

IFR

66.2°F / 59°F

[More]
Wind 40º 9kt
Visibility 2000m
Weather Haze
Clouds Vertical Visibility of 0ft.
Scattered Clouds 10000ft
Pressure 1017
Change No Significant change
Raw VAID 271230Z 04009KT 2000 HZ SCT020 SCT100 19/15 Q1017 NOSIG

IFR

66.2°F / 59°F

[More]
Wind 40º 9kt
Visibility 2000m
Weather Haze
Clouds Vertical Visibility of 0ft.
Scattered Clouds 10000ft
Pressure 1016
Change No Significant change
Raw VAID 271200Z 04009KT 2000 HZ SCT020 SCT100 19/15 Q1016 NOSIG

IFR

68°F / 59°F

[More]
Wind 40º 9kt
Visibility 2000m
Weather Haze
Clouds Vertical Visibility of 0ft.
Scattered Clouds 10000ft
Pressure 1016
Change No Significant change
Raw VAID 271130Z 04009KT 2000 HZ SCT020 SCT100 20/15 Q1016 NOSIG

IFR

68°F / 59°F

[More]
Wind 50º 10kt
Visibility 2000m
Weather Haze
Clouds Vertical Visibility of 0ft.
Scattered Clouds 10000ft
Pressure 1016
Change No Significant change
Raw VAID 271100Z 05010KT 2000 HZ SCT020 SCT100 20/15 Q1016 NOSIG

IFR

69.8°F / 59°F

[More]
Wind 40º 8kt
Visibility 1800m. Runway 07: Visual range is 1900m.
Weather Haze
Clouds Vertical Visibility of 0ft.
Scattered Clouds 10000ft
Pressure 1016
Change No Significant change
Raw VAID 271030Z 04008KT 1800 R07/1900 HZ SCT020 SCT100 21/15 Q1016 NOSIG

IFR

69.8°F / 59°F

[More]
Wind 50º 6kt
Visibility 2500m
Weather Haze
Clouds Vertical Visibility of 0ft.
Scattered Clouds 10000ft
Pressure 1016
Change No Significant change
Raw VAID 271000Z 05006KT 2500 HZ SCT020 SCT100 21/15 Q1016 NOSIG

IFR

71.6°F / 60.8°F

[More]
Wind 50º 6kt
Visibility 2500m
Weather Haze
Clouds Vertical Visibility of 0ft.
Scattered Clouds 10000ft
Pressure 1016
Change Temporary: Visibility 3000. Haze .
Raw VAID 270857Z 05006KT 2500 HZ SCT020 SCT100 22/16 Q1016 TEMPO 3000 HZ

IFR

71.6°F / 60.8°F

[More]
Wind 50º 6kt
Visibility 2000m
Weather Haze
Clouds Vertical Visibility of 0ft.
Scattered Clouds 10000ft
Pressure 1017
Change Temporary: Visibility 3000. Haze .
Raw VAID 270830Z 05006KT 2000 HZ SCT020 SCT100 22/16 Q1017 TEMPO 3000 HZ

IFR

68°F / 59°F

[More]
Wind 50º 8kt
Visibility 2000m
Weather Haze
Clouds Vertical Visibility of 0ft.
Scattered Clouds 10000ft
Pressure 1018
Change No Significant change
Raw VAID 270800Z 05008KT 2000 HZ SCT020 SCT100 20/15 Q1018 NOSIG

IFR

68°F / 59°F

[More]
Wind 20º 8kt
Visibility 2000m
Weather Haze
Clouds Vertical Visibility of 0ft.
Scattered Clouds 10000ft
Pressure 1018
Change No Significant change
Raw VAID 270730Z 02008KT 2000 HZ SCT020 SCT100 20/15 Q1018 NOSIG

IFR

68°F / 60.8°F

[More]
Wind 60º 6kt
Visibility 2000m
Weather Haze
Clouds Vertical Visibility of 0ft.
Scattered Clouds 10000ft
Pressure 1018
Change No Significant change
Raw VAID 270700Z 06006KT 2000 HZ SCT020 SCT100 20/16 Q1018 NOSIG

IFR

68°F / 60.8°F

[More]
Wind 70º 8kt
Visibility 2000m
Weather Haze
Clouds Vertical Visibility of 0ft.
Scattered Clouds 10000ft
Pressure 1019
Change No Significant change
Raw VAID 270630Z 07008KT 2000 HZ SCT020 SCT100 20/16 Q1019 NOSIG

IFR

68°F / 60.8°F

[More]
Wind 50º 8kt
Visibility 2000m
Weather Haze
Clouds Vertical Visibility of 0ft.
Scattered Clouds 10000ft
Pressure 1019
Change No Significant change
Raw VAID 270600Z 05008KT 2000 HZ SCT020 SCT100 20/16 Q1019 NOSIG

IFR

66.2°F / 60.8°F

[More]
Wind 60º 7kt
Visibility 2000m
Weather Haze
Clouds Vertical Visibility of 0ft.
Scattered Clouds 10000ft
Pressure 1020
Change Becoming: 3000M Haze .
Raw VAID 270530Z 06007KT 2000 HZ SCT020 SCT100 19/16 Q1020 BECMG 3000M HZ

IFR

64.4°F / 60.8°F

[More]
Wind 70º 9kt
Visibility 2000m
Weather Mist
Clouds Vertical Visibility of 0ft.
Broken Clouds 10000ft
Pressure 1020
Change No Significant change
Raw VAID 270500Z 07009KT 2000 BR SCT018 BKN100 18/16 Q1020 NOSIG

TAF for Indore (VAID)

From till


From till Wind 50º 8kt. Visibility 1500m. Mist . Nil Significant Cloud.
Becoming from till Wind 50º 5kt. Visibility 804.670m. Fog . Nil Significant Cloud.

Raw: TAF VAID 271700Z 2718/2803 05008KT 1500 BR NSC BECMG 2801/2803 05005KT 0800 FG VV///

Radar for Indore

Drizzle
Light
Moderate
Heavy
Very Heavy
Hail

The location marker is placed on Indore. Drizzle or light snow fall might be invisible for the radar. Precipitation intensity is colour coded, ranging from turquoise to red.

Current satellite and rain images for Indore, India

The location marker is placed on Indore. [More]

The real-time satellite image combines visible light during daytime with infrared radiation during nighttime. At night, the image is not dark as infrared radiation can detect temperature differences. Unfortunately, low clouds and fog are difficult to distinguish from ground temperatures and thus can be almost invisible during the night. Meteosat satellite images for Europe are updated in real-time every 5 minutes. GOES-16/GOES-17 (North & South America) and Himawari (Asia) images update every 10 minutes.

Copyright 2023 EUMETSAT / meteoblue. / Copyright 2023 meteoblue

Back to top